sensor_id;sensor_type;location;lat;lon;timestamp;P1;durP1;ratioP1;P2;durP2;ratioP2
19891;SDS011;10108;50.142;8.724;2022-08-21T00:00:00;13.20;;;8.63;;
19891;SDS011;10108;50.142;8.724;2022-08-21T00:02:27;13.00;;;8.60;;
19891;SDS011;10108;50.142;8.724;2022-08-21T00:04:53;15.85;;;8.57;;
19891;SDS011;10108;50.142;8.724;2022-08-21T00:07:20;17.38;;;8.93;;
19891;SDS011;10108;50.142;8.724;2022-08-21T00:09:46;11.93;;;8.23;;
19891;SDS011;10108;50.142;8.724;2022-08-21T00:12:13;13.65;;;8.65;;
19891;SDS011;10108;50.142;8.724;2022-08-21T00:14:39;12.98;;;8.48;;
19891;SDS011;10108;50.142;8.724;2022-08-21T00:17:06;12.60;;;8.43;;
19891;SDS011;10108;50.142;8.724;2022-08-21T00:19:33;13.77;;;8.45;;
19891;SDS011;10108;50.142;8.724;2022-08-21T00:21:59;14.25;;;8.73;;
19891;SDS011;10108;50.142;8.724;2022-08-21T00:24:25;12.55;;;8.48;;
19891;SDS011;10108;50.142;8.724;2022-08-21T00:26:52;13.65;;;8.50;;
19891;SDS011;10108;50.142;8.724;2022-08-21T00:29:18;12.80;;;8.73;;
19891;SDS011;10108;50.142;8.724;2022-08-21T00:31:44;17.02;;;9.45;;
19891;SDS011;10108;50.142;8.724;2022-08-21T00:34:11;13.88;;;8.45;;
19891;SDS011;10108;50.142;8.724;2022-08-21T00:36:38;14.82;;;8.63;;
19891;SDS011;10108;50.142;8.724;2022-08-21T00:39:05;15.13;;;9.02;;
19891;SDS011;10108;50.142;8.724;2022-08-21T00:41:33;15.50;;;9.27;;
19891;SDS011;10108;50.142;8.724;2022-08-21T00:44:00;13.75;;;8.95;;
19891;SDS011;10108;50.142;8.724;2022-08-21T00:46:26;14.57;;;8.75;;
19891;SDS011;10108;50.142;8.724;2022-08-21T00:48:52;14.82;;;8.90;;
19891;SDS011;10108;50.142;8.724;2022-08-21T00:51:20;12.48;;;8.77;;
19891;SDS011;10108;50.142;8.724;2022-08-21T00:53:53;11.65;;;8.50;;
19891;SDS011;10108;50.142;8.724;2022-08-21T00:56:22;14.68;;;9.15;;
19891;SDS011;10108;50.142;8.724;2022-08-21T00:58:50;19.00;;;8.93;;
19891;SDS011;10108;50.142;8.724;2022-08-21T01:01:18;10.95;;;8.45;;
19891;SDS011;10108;50.142;8.724;2022-08-21T01:03:45;12.57;;;8.82;;
19891;SDS011;10108;50.142;8.724;2022-08-21T01:06:12;14.10;;;9.13;;
19891;SDS011;10108;50.142;8.724;2022-08-21T01:08:38;15.05;;;8.75;;
19891;SDS011;10108;50.142;8.724;2022-08-21T01:11:05;16.38;;;9.02;;
19891;SDS011;10108;50.142;8.724;2022-08-21T01:13:32;13.20;;;9.13;;
19891;SDS011;10108;50.142;8.724;2022-08-21T01:16:02;14.63;;;9.48;;
19891;SDS011;10108;50.142;8.724;2022-08-21T01:18:31;13.07;;;8.85;;
19891;SDS011;10108;50.142;8.724;2022-08-21T01:21:01;13.65;;;8.98;;
19891;SDS011;10108;50.142;8.724;2022-08-21T01:23:50;13.73;;;9.07;;
19891;SDS011;10108;50.142;8.724;2022-08-21T01:26:23;15.27;;;9.82;;
19891;SDS011;10108;50.142;8.724;2022-08-21T01:29:05;18.38;;;8.50;;
19891;SDS011;10108;50.142;8.724;2022-08-21T01:31:42;14.63;;;8.90;;
19891;SDS011;10108;50.142;8.724;2022-08-21T01:34:08;15.30;;;9.05;;
19891;SDS011;10108;50.142;8.724;2022-08-21T01:36:35;14.50;;;8.60;;
19891;SDS011;10108;50.142;8.724;2022-08-21T01:39:02;15.93;;;9.43;;
19891;SDS011;10108;50.142;8.724;2022-08-21T01:41:29;15.35;;;9.10;;
19891;SDS011;10108;50.142;8.724;2022-08-21T01:43:55;14.93;;;9.45;;
19891;SDS011;10108;50.142;8.724;2022-08-21T01:46:21;15.95;;;8.63;;
19891;SDS011;10108;50.142;8.724;2022-08-21T01:48:48;13.73;;;9.38;;
19891;SDS011;10108;50.142;8.724;2022-08-21T01:51:14;16.13;;;8.82;;
19891;SDS011;10108;50.142;8.724;2022-08-21T01:53:40;13.60;;;8.68;;
19891;SDS011;10108;50.142;8.724;2022-08-21T01:56:07;13.13;;;8.77;;
19891;SDS011;10108;50.142;8.724;2022-08-21T01:58:35;15.00;;;9.35;;
19891;SDS011;10108;50.142;8.724;2022-08-21T02:01:02;13.32;;;8.63;;
19891;SDS011;10108;50.142;8.724;2022-08-21T02:03:28;12.65;;;8.80;;
19891;SDS011;10108;50.142;8.724;2022-08-21T02:05:55;13.82;;;9.02;;
19891;SDS011;10108;50.142;8.724;2022-08-21T02:08:22;12.95;;;8.63;;
19891;SDS011;10108;50.142;8.724;2022-08-21T02:10:49;13.60;;;8.77;;
19891;SDS011;10108;50.142;8.724;2022-08-21T02:13:17;12.27;;;8.93;;
19891;SDS011;10108;50.142;8.724;2022-08-21T02:15:43;14.82;;;8.82;;
19891;SDS011;10108;50.142;8.724;2022-08-21T02:18:09;16.10;;;9.32;;
19891;SDS011;10108;50.142;8.724;2022-08-21T02:20:37;13.20;;;8.95;;
19891;SDS011;10108;50.142;8.724;2022-08-21T02:23:07;13.75;;;8.75;;
19891;SDS011;10108;50.142;8.724;2022-08-21T02:25:35;13.43;;;9.18;;
19891;SDS011;10108;50.142;8.724;2022-08-21T02:28:04;12.85;;;8.90;;
19891;SDS011;10108;50.142;8.724;2022-08-21T02:30:33;15.38;;;9.02;;
19891;SDS011;10108;50.142;8.724;2022-08-21T02:33:03;13.75;;;8.52;;
19891;SDS011;10108;50.142;8.724;2022-08-21T02:35:33;13.45;;;9.10;;
19891;SDS011;10108;50.142;8.724;2022-08-21T02:38:01;14.02;;;9.48;;
19891;SDS011;10108;50.142;8.724;2022-08-21T02:40:34;11.73;;;8.85;;
19891;SDS011;10108;50.142;8.724;2022-08-21T02:43:02;13.68;;;9.25;;
19891;SDS011;10108;50.142;8.724;2022-08-21T02:45:29;13.35;;;9.70;;
19891;SDS011;10108;50.142;8.724;2022-08-21T02:47:58;17.85;;;9.45;;
19891;SDS011;10108;50.142;8.724;2022-08-21T02:50:30;14.20;;;9.73;;
19891;SDS011;10108;50.142;8.724;2022-08-21T02:52:59;14.30;;;9.00;;
19891;SDS011;10108;50.142;8.724;2022-08-21T02:55:26;12.85;;;9.05;;
19891;SDS011;10108;50.142;8.724;2022-08-21T02:57:55;14.70;;;10.20;;
19891;SDS011;10108;50.142;8.724;2022-08-21T03:00:23;14.18;;;9.27;;
19891;SDS011;10108;50.142;8.724;2022-08-21T03:02:51;16.92;;;9.38;;
19891;SDS011;10108;50.142;8.724;2022-08-21T03:05:18;12.10;;;8.88;;
19891;SDS011;10108;50.142;8.724;2022-08-21T03:07:45;14.52;;;10.00;;
19891;SDS011;10108;50.142;8.724;2022-08-21T03:10:12;13.50;;;9.27;;
19891;SDS011;10108;50.142;8.724;2022-08-21T03:12:40;12.40;;;8.90;;
19891;SDS011;10108;50.142;8.724;2022-08-21T03:15:07;13.02;;;9.48;;
19891;SDS011;10108;50.142;8.724;2022-08-21T03:17:36;14.20;;;9.43;;
19891;SDS011;10108;50.142;8.724;2022-08-21T03:20:03;13.48;;;9.75;;
19891;SDS011;10108;50.142;8.724;2022-08-21T03:22:30;16.10;;;9.50;;
19891;SDS011;10108;50.142;8.724;2022-08-21T03:24:57;14.80;;;8.68;;
19891;SDS011;10108;50.142;8.724;2022-08-21T03:27:24;13.95;;;8.98;;
19891;SDS011;10108;50.142;8.724;2022-08-21T03:29:52;14.27;;;9.35;;
19891;SDS011;10108;50.142;8.724;2022-08-21T03:32:19;12.43;;;9.38;;
19891;SDS011;10108;50.142;8.724;2022-08-21T03:34:45;13.30;;;9.02;;
19891;SDS011;10108;50.142;8.724;2022-08-21T03:37:11;15.88;;;9.43;;
19891;SDS011;10108;50.142;8.724;2022-08-21T03:39:38;14.70;;;9.10;;
19891;SDS011;10108;50.142;8.724;2022-08-21T03:42:05;12.93;;;9.20;;
19891;SDS011;10108;50.142;8.724;2022-08-21T03:44:31;17.02;;;9.35;;
19891;SDS011;10108;50.142;8.724;2022-08-21T03:46:58;12.98;;;9.07;;
19891;SDS011;10108;50.142;8.724;2022-08-21T03:49:24;14.07;;;9.20;;
19891;SDS011;10108;50.142;8.724;2022-08-21T03:51:51;14.48;;;9.70;;
19891;SDS011;10108;50.142;8.724;2022-08-21T03:54:17;14.35;;;9.32;;
19891;SDS011;10108;50.142;8.724;2022-08-21T03:56:43;15.88;;;9.48;;
19891;SDS011;10108;50.142;8.724;2022-08-21T03:59:10;14.55;;;9.43;;
19891;SDS011;10108;50.142;8.724;2022-08-21T04:01:36;14.63;;;9.25;;
19891;SDS011;10108;50.142;8.724;2022-08-21T04:04:03;14.82;;;9.73;;
19891;SDS011;10108;50.142;8.724;2022-08-21T04:06:29;14.88;;;9.85;;
19891;SDS011;10108;50.142;8.724;2022-08-21T04:08:55;13.13;;;9.75;;
19891;SDS011;10108;50.142;8.724;2022-08-21T04:11:21;14.10;;;9.02;;
19891;SDS011;10108;50.142;8.724;2022-08-21T04:13:48;15.48;;;9.70;;
19891;SDS011;10108;50.142;8.724;2022-08-21T04:16:14;15.05;;;9.50;;
19891;SDS011;10108;50.142;8.724;2022-08-21T04:18:41;14.25;;;9.23;;
19891;SDS011;10108;50.142;8.724;2022-08-21T04:21:08;13.15;;;9.00;;
19891;SDS011;10108;50.142;8.724;2022-08-21T04:23:35;14.85;;;9.52;;
19891;SDS011;10108;50.142;8.724;2022-08-21T04:26:02;14.23;;;10.02;;
19891;SDS011;10108;50.142;8.724;2022-08-21T04:28:28;12.55;;;9.10;;
19891;SDS011;10108;50.142;8.724;2022-08-21T04:30:54;13.27;;;9.80;;
19891;SDS011;10108;50.142;8.724;2022-08-21T04:33:21;15.35;;;9.32;;
19891;SDS011;10108;50.142;8.724;2022-08-21T04:35:48;13.88;;;9.25;;
19891;SDS011;10108;50.142;8.724;2022-08-21T04:38:14;15.02;;;9.57;;
19891;SDS011;10108;50.142;8.724;2022-08-21T04:40:41;14.10;;;9.40;;
19891;SDS011;10108;50.142;8.724;2022-08-21T04:43:08;16.17;;;9.93;;
19891;SDS011;10108;50.142;8.724;2022-08-21T04:45:36;13.00;;;8.80;;
19891;SDS011;10108;50.142;8.724;2022-08-21T04:48:05;12.85;;;9.07;;
19891;SDS011;10108;50.142;8.724;2022-08-21T04:50:45;13.57;;;8.88;;
19891;SDS011;10108;50.142;8.724;2022-08-21T04:53:41;13.48;;;9.45;;
19891;SDS011;10108;50.142;8.724;2022-08-21T04:56:22;13.93;;;9.43;;
19891;SDS011;10108;50.142;8.724;2022-08-21T04:58:53;13.38;;;9.63;;
19891;SDS011;10108;50.142;8.724;2022-08-21T05:01:22;14.98;;;9.60;;
19891;SDS011;10108;50.142;8.724;2022-08-21T05:03:50;14.07;;;9.15;;
19891;SDS011;10108;50.142;8.724;2022-08-21T05:06:19;14.05;;;9.48;;
19891;SDS011;10108;50.142;8.724;2022-08-21T05:08:47;14.27;;;9.32;;
19891;SDS011;10108;50.142;8.724;2022-08-21T05:11:15;14.30;;;9.70;;
19891;SDS011;10108;50.142;8.724;2022-08-21T05:13:41;15.50;;;9.45;;
19891;SDS011;10108;50.142;8.724;2022-08-21T05:16:07;16.48;;;9.95;;
19891;SDS011;10108;50.142;8.724;2022-08-21T05:18:33;18.05;;;10.25;;
19891;SDS011;10108;50.142;8.724;2022-08-21T05:21:00;14.65;;;9.98;;
19891;SDS011;10108;50.142;8.724;2022-08-21T05:23:26;18.35;;;10.00;;
19891;SDS011;10108;50.142;8.724;2022-08-21T05:25:52;15.45;;;10.35;;
19891;SDS011;10108;50.142;8.724;2022-08-21T05:28:19;15.23;;;9.93;;
19891;SDS011;10108;50.142;8.724;2022-08-21T05:30:45;15.02;;;9.80;;
19891;SDS011;10108;50.142;8.724;2022-08-21T05:33:11;16.40;;;10.23;;
19891;SDS011;10108;50.142;8.724;2022-08-21T05:35:38;17.63;;;10.32;;
19891;SDS011;10108;50.142;8.724;2022-08-21T05:38:04;16.95;;;10.35;;
19891;SDS011;10108;50.142;8.724;2022-08-21T05:40:31;15.23;;;10.55;;
19891;SDS011;10108;50.142;8.724;2022-08-21T05:42:58;17.63;;;11.60;;
19891;SDS011;10108;50.142;8.724;2022-08-21T05:45:26;15.30;;;10.55;;
19891;SDS011;10108;50.142;8.724;2022-08-21T05:47:54;15.05;;;10.80;;
19891;SDS011;10108;50.142;8.724;2022-08-21T05:50:20;17.55;;;11.07;;
19891;SDS011;10108;50.142;8.724;2022-08-21T05:52:46;15.73;;;10.27;;
19891;SDS011;10108;50.142;8.724;2022-08-21T05:55:12;16.27;;;10.65;;
19891;SDS011;10108;50.142;8.724;2022-08-21T05:57:39;15.07;;;10.68;;
19891;SDS011;10108;50.142;8.724;2022-08-21T06:00:09;15.25;;;9.90;;
19891;SDS011;10108;50.142;8.724;2022-08-21T06:02:39;17.98;;;11.57;;
19891;SDS011;10108;50.142;8.724;2022-08-21T06:05:05;17.40;;;10.48;;
19891;SDS011;10108;50.142;8.724;2022-08-21T06:07:32;16.42;;;11.18;;
19891;SDS011;10108;50.142;8.724;2022-08-21T06:09:59;15.45;;;9.77;;
19891;SDS011;10108;50.142;8.724;2022-08-21T06:12:25;15.85;;;10.63;;
19891;SDS011;10108;50.142;8.724;2022-08-21T06:14:51;16.30;;;10.93;;
19891;SDS011;10108;50.142;8.724;2022-08-21T06:17:18;16.83;;;10.32;;
19891;SDS011;10108;50.142;8.724;2022-08-21T06:19:44;15.25;;;10.65;;
19891;SDS011;10108;50.142;8.724;2022-08-21T06:22:10;15.40;;;11.25;;
19891;SDS011;10108;50.142;8.724;2022-08-21T06:24:36;18.02;;;11.15;;
19891;SDS011;10108;50.142;8.724;2022-08-21T06:27:04;19.95;;;10.90;;
19891;SDS011;10108;50.142;8.724;2022-08-21T06:29:31;16.90;;;11.38;;
19891;SDS011;10108;50.142;8.724;2022-08-21T06:31:58;17.15;;;10.95;;
19891;SDS011;10108;50.142;8.724;2022-08-21T06:34:24;17.83;;;10.95;;
19891;SDS011;10108;50.142;8.724;2022-08-21T06:36:50;18.50;;;11.05;;
19891;SDS011;10108;50.142;8.724;2022-08-21T06:39:16;16.98;;;10.77;;
19891;SDS011;10108;50.142;8.724;2022-08-21T06:41:42;17.02;;;10.90;;
19891;SDS011;10108;50.142;8.724;2022-08-21T06:44:08;15.18;;;9.88;;
19891;SDS011;10108;50.142;8.724;2022-08-21T06:46:35;15.63;;;11.02;;
19891;SDS011;10108;50.142;8.724;2022-08-21T06:49:01;17.10;;;10.65;;
19891;SDS011;10108;50.142;8.724;2022-08-21T06:51:27;16.10;;;11.00;;
19891;SDS011;10108;50.142;8.724;2022-08-21T06:53:53;15.95;;;11.13;;
19891;SDS011;10108;50.142;8.724;2022-08-21T06:56:20;17.98;;;11.23;;
19891;SDS011;10108;50.142;8.724;2022-08-21T06:58:46;14.95;;;10.98;;
19891;SDS011;10108;50.142;8.724;2022-08-21T07:01:12;15.98;;;10.88;;
19891;SDS011;10108;50.142;8.724;2022-08-21T07:03:40;16.95;;;10.65;;
19891;SDS011;10108;50.142;8.724;2022-08-21T07:06:08;15.38;;;10.40;;
19891;SDS011;10108;50.142;8.724;2022-08-21T07:08:36;15.57;;;10.43;;
19891;SDS011;10108;50.142;8.724;2022-08-21T07:11:04;15.70;;;10.02;;
19891;SDS011;10108;50.142;8.724;2022-08-21T07:13:36;14.55;;;9.73;;
19891;SDS011;10108;50.142;8.724;2022-08-21T07:16:02;17.23;;;10.40;;
19891;SDS011;10108;50.142;8.724;2022-08-21T07:18:28;19.70;;;10.80;;
19891;SDS011;10108;50.142;8.724;2022-08-21T07:20:55;15.38;;;10.15;;
19891;SDS011;10108;50.142;8.724;2022-08-21T07:23:22;18.27;;;10.20;;
19891;SDS011;10108;50.142;8.724;2022-08-21T07:25:49;15.55;;;10.68;;
19891;SDS011;10108;50.142;8.724;2022-08-21T07:28:15;15.82;;;10.02;;
19891;SDS011;10108;50.142;8.724;2022-08-21T07:30:41;15.55;;;10.48;;
19891;SDS011;10108;50.142;8.724;2022-08-21T07:33:07;14.85;;;10.20;;
19891;SDS011;10108;50.142;8.724;2022-08-21T07:35:33;17.75;;;10.57;;
19891;SDS011;10108;50.142;8.724;2022-08-21T07:38:00;15.95;;;10.23;;
19891;SDS011;10108;50.142;8.724;2022-08-21T07:40:26;15.43;;;10.20;;
19891;SDS011;10108;50.142;8.724;2022-08-21T07:42:52;14.48;;;10.60;;
19891;SDS011;10108;50.142;8.724;2022-08-21T07:45:19;19.08;;;11.20;;
19891;SDS011;10108;50.142;8.724;2022-08-21T07:47:47;18.40;;;10.80;;
19891;SDS011;10108;50.142;8.724;2022-08-21T07:50:13;22.23;;;11.18;;
19891;SDS011;10108;50.142;8.724;2022-08-21T07:52:41;16.95;;;10.60;;
19891;SDS011;10108;50.142;8.724;2022-08-21T07:55:09;18.60;;;10.73;;
19891;SDS011;10108;50.142;8.724;2022-08-21T07:57:37;15.13;;;10.35;;
19891;SDS011;10108;50.142;8.724;2022-08-21T08:00:05;15.85;;;10.43;;
19891;SDS011;10108;50.142;8.724;2022-08-21T08:02:37;17.48;;;9.90;;
19891;SDS011;10108;50.142;8.724;2022-08-21T08:05:05;16.85;;;10.38;;
19891;SDS011;10108;50.142;8.724;2022-08-21T08:07:33;14.63;;;10.13;;
19891;SDS011;10108;50.142;8.724;2022-08-21T08:10:00;18.38;;;10.40;;
19891;SDS011;10108;50.142;8.724;2022-08-21T08:12:26;18.63;;;10.73;;
19891;SDS011;10108;50.142;8.724;2022-08-21T08:14:56;16.88;;;10.30;;
19891;SDS011;10108;50.142;8.724;2022-08-21T08:17:22;18.60;;;9.93;;
19891;SDS011;10108;50.142;8.724;2022-08-21T08:19:49;16.83;;;10.95;;
19891;SDS011;10108;50.142;8.724;2022-08-21T08:22:16;16.40;;;10.60;;
19891;SDS011;10108;50.142;8.724;2022-08-21T08:24:49;17.23;;;10.38;;
19891;SDS011;10108;50.142;8.724;2022-08-21T08:27:16;13.98;;;10.18;;
19891;SDS011;10108;50.142;8.724;2022-08-21T08:29:43;15.68;;;10.50;;
19891;SDS011;10108;50.142;8.724;2022-08-21T08:32:10;18.15;;;10.60;;
19891;SDS011;10108;50.142;8.724;2022-08-21T08:34:36;19.13;;;11.77;;
19891;SDS011;10108;50.142;8.724;2022-08-21T08:37:04;18.75;;;11.38;;
19891;SDS011;10108;50.142;8.724;2022-08-21T08:39:33;14.60;;;9.52;;
19891;SDS011;10108;50.142;8.724;2022-08-21T08:42:04;20.45;;;11.93;;
19891;SDS011;10108;50.142;8.724;2022-08-21T08:44:38;20.30;;;11.43;;
19891;SDS011;10108;50.142;8.724;2022-08-21T08:47:10;17.85;;;11.43;;
19891;SDS011;10108;50.142;8.724;2022-08-21T08:50:03;18.08;;;10.30;;
19891;SDS011;10108;50.142;8.724;2022-08-21T08:52:32;19.90;;;11.10;;
19891;SDS011;10108;50.142;8.724;2022-08-21T08:55:05;15.23;;;10.40;;
19891;SDS011;10108;50.142;8.724;2022-08-21T08:57:41;16.75;;;11.30;;
19891;SDS011;10108;50.142;8.724;2022-08-21T09:00:11;17.73;;;9.68;;
19891;SDS011;10108;50.142;8.724;2022-08-21T09:02:39;15.77;;;11.50;;
19891;SDS011;10108;50.142;8.724;2022-08-21T09:05:07;15.43;;;10.93;;
19891;SDS011;10108;50.142;8.724;2022-08-21T09:10:19;13.23;;;8.77;;
19891;SDS011;10108;50.142;8.724;2022-08-21T09:13:01;13.93;;;8.63;;
19891;SDS011;10108;50.142;8.724;2022-08-21T09:16:01;18.55;;;10.10;;
19891;SDS011;10108;50.142;8.724;2022-08-21T09:21:26;12.88;;;9.15;;
19891;SDS011;10108;50.142;8.724;2022-08-21T09:27:25;15.65;;;9.82;;
19891;SDS011;10108;50.142;8.724;2022-08-21T09:29:40;17.33;;;11.38;;
19891;SDS011;10108;50.142;8.724;2022-08-21T09:32:16;17.17;;;10.20;;
19891;SDS011;10108;50.142;8.724;2022-08-21T09:41:00;12.82;;;8.10;;
19891;SDS011;10108;50.142;8.724;2022-08-21T09:43:10;14.43;;;8.35;;
19891;SDS011;10108;50.142;8.724;2022-08-21T09:45:46;12.82;;;7.20;;
19891;SDS011;10108;50.142;8.724;2022-08-21T09:48:21;13.85;;;7.53;;
19891;SDS011;10108;50.142;8.724;2022-08-21T09:50:50;13.82;;;7.90;;
19891;SDS011;10108;50.142;8.724;2022-08-21T09:53:27;18.90;;;7.80;;
19891;SDS011;10108;50.142;8.724;2022-08-21T09:56:03;12.88;;;7.15;;
19891;SDS011;10108;50.142;8.724;2022-08-21T09:58:50;12.60;;;6.80;;
19891;SDS011;10108;50.142;8.724;2022-08-21T10:01:21;10.65;;;6.95;;
19891;SDS011;10108;50.142;8.724;2022-08-21T10:03:49;12.00;;;7.57;;
19891;SDS011;10108;50.142;8.724;2022-08-21T10:06:28;14.32;;;7.65;;
19891;SDS011;10108;50.142;8.724;2022-08-21T10:09:09;11.90;;;7.00;;
19891;SDS011;10108;50.142;8.724;2022-08-21T10:11:39;13.18;;;7.70;;
19891;SDS011;10108;50.142;8.724;2022-08-21T10:14:30;11.75;;;7.15;;
19891;SDS011;10108;50.142;8.724;2022-08-21T10:17:42;14.77;;;7.78;;
19891;SDS011;10108;50.142;8.724;2022-08-21T10:20:28;13.73;;;8.18;;
19891;SDS011;10108;50.142;8.724;2022-08-21T10:25:50;12.77;;;8.25;;
19891;SDS011;10108;50.142;8.724;2022-08-21T10:31:00;14.93;;;7.80;;
19891;SDS011;10108;50.142;8.724;2022-08-21T10:33:43;17.15;;;8.13;;
19891;SDS011;10108;50.142;8.724;2022-08-21T10:39:34;10.55;;;7.07;;
19891;SDS011;10108;50.142;8.724;2022-08-21T10:42:33;16.60;;;8.32;;
19891;SDS011;10108;50.142;8.724;2022-08-21T10:45:18;10.55;;;7.65;;
19891;SDS011;10108;50.142;8.724;2022-08-21T10:48:06;10.85;;;7.40;;
19891;SDS011;10108;50.142;8.724;2022-08-21T10:50:42;14.18;;;7.90;;
19891;SDS011;10108;50.142;8.724;2022-08-21T10:56:14;15.25;;;7.50;;
19891;SDS011;10108;50.142;8.724;2022-08-21T10:58:59;10.80;;;7.13;;
19891;SDS011;10108;50.142;8.724;2022-08-21T11:01:45;8.65;;;6.50;;
19891;SDS011;10108;50.142;8.724;2022-08-21T11:04:27;12.48;;;7.95;;
19891;SDS011;10108;50.142;8.724;2022-08-21T11:07:03;11.02;;;7.30;;
19891;SDS011;10108;50.142;8.724;2022-08-21T11:09:37;11.10;;;7.35;;
19891;SDS011;10108;50.142;8.724;2022-08-21T11:17:45;10.90;;;7.78;;
19891;SDS011;10108;50.142;8.724;2022-08-21T11:20:40;16.50;;;8.00;;
19891;SDS011;10108;50.142;8.724;2022-08-21T11:23:07;13.68;;;7.50;;
19891;SDS011;10108;50.142;8.724;2022-08-21T11:25:47;19.92;;;8.60;;
19891;SDS011;10108;50.142;8.724;2022-08-21T11:28:24;12.65;;;7.80;;
19891;SDS011;10108;50.142;8.724;2022-08-21T11:31:05;12.93;;;7.40;;
19891;SDS011;10108;50.142;8.724;2022-08-21T11:33:46;11.02;;;7.03;;
19891;SDS011;10108;50.142;8.724;2022-08-21T11:36:41;10.05;;;6.72;;
19891;SDS011;10108;50.142;8.724;2022-08-21T11:41:39;12.00;;;6.68;;
19891;SDS011;10108;50.142;8.724;2022-08-21T11:45:02;15.57;;;7.65;;
19891;SDS011;10108;50.142;8.724;2022-08-21T11:50:26;12.02;;;7.30;;
19891;SDS011;10108;50.142;8.724;2022-08-21T11:52:56;12.65;;;7.05;;
19891;SDS011;10108;50.142;8.724;2022-08-21T11:58:01;13.60;;;7.03;;
19891;SDS011;10108;50.142;8.724;2022-08-21T12:00:39;10.07;;;7.13;;
19891;SDS011;10108;50.142;8.724;2022-08-21T12:03:20;13.82;;;7.45;;
19891;SDS011;10108;50.142;8.724;2022-08-21T12:05:56;12.10;;;7.57;;
19891;SDS011;10108;50.142;8.724;2022-08-21T12:08:26;12.70;;;7.10;;
19891;SDS011;10108;50.142;8.724;2022-08-21T12:11:03;8.40;;;6.15;;
19891;SDS011;10108;50.142;8.724;2022-08-21T12:14:00;9.27;;;6.90;;
19891;SDS011;10108;50.142;8.724;2022-08-21T12:16:40;9.18;;;7.13;;
19891;SDS011;10108;50.142;8.724;2022-08-21T12:19:35;14.25;;;7.22;;
19891;SDS011;10108;50.142;8.724;2022-08-21T12:24:37;10.63;;;7.20;;
19891;SDS011;10108;50.142;8.724;2022-08-21T12:27:17;9.57;;;6.85;;
19891;SDS011;10108;50.142;8.724;2022-08-21T12:30:05;12.88;;;6.82;;
19891;SDS011;10108;50.142;8.724;2022-08-21T12:32:45;10.45;;;6.90;;
19891;SDS011;10108;50.142;8.724;2022-08-21T12:35:26;12.73;;;6.93;;
19891;SDS011;10108;50.142;8.724;2022-08-21T12:40:25;13.60;;;6.78;;
19891;SDS011;10108;50.142;8.724;2022-08-21T12:43:11;11.73;;;6.68;;
19891;SDS011;10108;50.142;8.724;2022-08-21T12:45:53;8.95;;;6.53;;
19891;SDS011;10108;50.142;8.724;2022-08-21T12:51:04;10.18;;;6.60;;
19891;SDS011;10108;50.142;8.724;2022-08-21T12:53:40;11.63;;;6.05;;
19891;SDS011;10108;50.142;8.724;2022-08-21T12:56:14;11.00;;;6.82;;
19891;SDS011;10108;50.142;8.724;2022-08-21T12:58:49;9.15;;;6.50;;
19891;SDS011;10108;50.142;8.724;2022-08-21T13:03:54;12.65;;;7.45;;
19891;SDS011;10108;50.142;8.724;2022-08-21T13:06:23;11.50;;;7.10;;
19891;SDS011;10108;50.142;8.724;2022-08-21T13:08:55;11.80;;;7.28;;
19891;SDS011;10108;50.142;8.724;2022-08-21T13:11:24;12.85;;;6.88;;
19891;SDS011;10108;50.142;8.724;2022-08-21T13:13:51;10.80;;;7.13;;
19891;SDS011;10108;50.142;8.724;2022-08-21T13:16:26;10.98;;;7.10;;
19891;SDS011;10108;50.142;8.724;2022-08-21T13:21:19;10.93;;;6.65;;
19891;SDS011;10108;50.142;8.724;2022-08-21T13:23:46;10.35;;;6.22;;
19891;SDS011;10108;50.142;8.724;2022-08-21T13:26:13;9.35;;;6.57;;
19891;SDS011;10108;50.142;8.724;2022-08-21T13:28:41;10.95;;;7.13;;
19891;SDS011;10108;50.142;8.724;2022-08-21T13:31:09;13.30;;;7.00;;
19891;SDS011;10108;50.142;8.724;2022-08-21T13:33:36;12.15;;;7.35;;
19891;SDS011;10108;50.142;8.724;2022-08-21T13:36:09;10.48;;;6.88;;
19891;SDS011;10108;50.142;8.724;2022-08-21T13:38:38;9.80;;;6.70;;
19891;SDS011;10108;50.142;8.724;2022-08-21T13:41:17;10.73;;;7.20;;
19891;SDS011;10108;50.142;8.724;2022-08-21T13:43:57;11.43;;;7.18;;
19891;SDS011;10108;50.142;8.724;2022-08-21T13:46:31;12.23;;;7.13;;
19891;SDS011;10108;50.142;8.724;2022-08-21T13:49:00;11.93;;;7.50;;
19891;SDS011;10108;50.142;8.724;2022-08-21T13:51:28;11.48;;;7.00;;
19891;SDS011;10108;50.142;8.724;2022-08-21T13:53:56;10.20;;;6.93;;
19891;SDS011;10108;50.142;8.724;2022-08-21T13:59:06;11.13;;;7.18;;
19891;SDS011;10108;50.142;8.724;2022-08-21T14:01:33;12.73;;;7.38;;
19891;SDS011;10108;50.142;8.724;2022-08-21T14:04:25;9.70;;;6.72;;
19891;SDS011;10108;50.142;8.724;2022-08-21T14:07:02;10.25;;;6.95;;
19891;SDS011;10108;50.142;8.724;2022-08-21T14:09:41;14.25;;;7.30;;
19891;SDS011;10108;50.142;8.724;2022-08-21T14:12:13;11.27;;;6.88;;
19891;SDS011;10108;50.142;8.724;2022-08-21T14:14:40;10.55;;;7.30;;
19891;SDS011;10108;50.142;8.724;2022-08-21T14:17:07;10.10;;;7.40;;
19891;SDS011;10108;50.142;8.724;2022-08-21T14:19:41;12.15;;;7.22;;
19891;SDS011;10108;50.142;8.724;2022-08-21T14:25:01;11.45;;;7.28;;
19891;SDS011;10108;50.142;8.724;2022-08-21T14:27:31;12.20;;;7.60;;
19891;SDS011;10108;50.142;8.724;2022-08-21T14:30:00;11.85;;;7.03;;
19891;SDS011;10108;50.142;8.724;2022-08-21T14:32:36;10.45;;;7.50;;
19891;SDS011;10108;50.142;8.724;2022-08-21T14:35:08;10.52;;;6.95;;
19891;SDS011;10108;50.142;8.724;2022-08-21T14:37:34;10.20;;;6.40;;
19891;SDS011;10108;50.142;8.724;2022-08-21T14:40:02;9.88;;;6.50;;
19891;SDS011;10108;50.142;8.724;2022-08-21T14:42:29;12.32;;;6.82;;
19891;SDS011;10108;50.142;8.724;2022-08-21T14:44:57;10.70;;;6.70;;
19891;SDS011;10108;50.142;8.724;2022-08-21T14:47:27;10.50;;;6.50;;
19891;SDS011;10108;50.142;8.724;2022-08-21T14:49:54;12.93;;;7.03;;
19891;SDS011;10108;50.142;8.724;2022-08-21T14:52:20;10.93;;;6.90;;
19891;SDS011;10108;50.142;8.724;2022-08-21T14:54:48;11.32;;;7.22;;
19891;SDS011;10108;50.142;8.724;2022-08-21T14:57:14;9.55;;;6.32;;
19891;SDS011;10108;50.142;8.724;2022-08-21T14:59:40;10.10;;;6.28;;
19891;SDS011;10108;50.142;8.724;2022-08-21T15:02:07;9.23;;;6.38;;
19891;SDS011;10108;50.142;8.724;2022-08-21T15:04:34;10.93;;;6.85;;
19891;SDS011;10108;50.142;8.724;2022-08-21T15:07:00;9.65;;;6.35;;
19891;SDS011;10108;50.142;8.724;2022-08-21T15:09:26;11.40;;;6.88;;
19891;SDS011;10108;50.142;8.724;2022-08-21T15:11:53;9.82;;;6.43;;
19891;SDS011;10108;50.142;8.724;2022-08-21T15:14:26;9.68;;;6.78;;
19891;SDS011;10108;50.142;8.724;2022-08-21T15:16:55;9.15;;;6.32;;
19891;SDS011;10108;50.142;8.724;2022-08-21T15:19:21;7.32;;;5.80;;
19891;SDS011;10108;50.142;8.724;2022-08-21T15:21:47;8.73;;;6.03;;
19891;SDS011;10108;50.142;8.724;2022-08-21T15:24:14;8.68;;;5.90;;
19891;SDS011;10108;50.142;8.724;2022-08-21T15:26:40;8.73;;;5.72;;
19891;SDS011;10108;50.142;8.724;2022-08-21T15:29:07;8.35;;;5.60;;
19891;SDS011;10108;50.142;8.724;2022-08-21T15:31:34;9.57;;;5.95;;
19891;SDS011;10108;50.142;8.724;2022-08-21T15:34:01;9.52;;;6.85;;
19891;SDS011;10108;50.142;8.724;2022-08-21T15:36:27;10.45;;;6.55;;
19891;SDS011;10108;50.142;8.724;2022-08-21T15:38:53;10.32;;;6.00;;
19891;SDS011;10108;50.142;8.724;2022-08-21T15:41:19;8.45;;;6.30;;
19891;SDS011;10108;50.142;8.724;2022-08-21T15:43:47;7.28;;;5.80;;
19891;SDS011;10108;50.142;8.724;2022-08-21T15:46:16;11.88;;;6.50;;
19891;SDS011;10108;50.142;8.724;2022-08-21T15:48:43;9.70;;;6.20;;